createdAt,value
2019-01-09T00:02:29.641Z,7.97
2019-01-09T00:07:48.246Z,4.30
2019-01-09T00:13:06.836Z,14.53
2019-01-09T00:18:25.363Z,8.07
2019-01-09T00:23:43.994Z,10.58
2019-01-09T00:29:02.509Z,17.43
2019-01-09T00:34:21.116Z,10.53
2019-01-09T00:39:39.715Z,13.40
2019-01-09T00:44:58.329Z,11.40
2019-01-09T00:50:16.914Z,10.43
2019-01-09T00:55:35.530Z,10.17
2019-01-09T01:00:54.138Z,11.80
2019-01-09T01:06:52.566Z,4.67
2019-01-09T01:12:49.677Z,12.30
2019-01-09T01:18:48.044Z,18.60
2019-01-09T01:24:45.091Z,15.90
2019-01-09T01:30:43.456Z,23.27
2019-01-09T01:36:41.901Z,21.47
2019-01-09T01:42:38.954Z,18.73
2019-01-09T01:48:36.029Z,16.40
2019-01-09T01:54:33.083Z,23.77
2019-01-09T02:00:31.554Z,20.47
2019-01-09T02:06:29.942Z,35.00
2019-01-09T02:12:28.315Z,13.40
2019-01-09T02:18:26.698Z,8.00
2019-01-09T02:24:25.131Z,16.47
2019-01-09T02:30:22.173Z,15.63
2019-01-09T02:41:11.297Z,16.87
2019-01-09T02:46:29.903Z,21.20
2019-01-09T02:51:48.447Z,22.83
2019-01-09T02:57:07.048Z,37.43
2019-01-09T03:07:56.168Z,19.43
2019-01-09T03:13:14.767Z,22.33
2019-01-09T03:18:33.367Z,24.20
2019-01-09T03:23:51.966Z,13.13
2019-01-09T03:34:43.131Z,13.43
2019-01-09T03:40:01.769Z,15.17
2019-01-09T03:45:20.462Z,20.00
2019-01-09T03:56:09.511Z,16.60
2019-01-09T04:01:28.062Z,11.60
2019-01-09T04:06:46.599Z,7.00
2019-01-09T04:12:05.193Z,4.37
2019-01-09T04:17:24.072Z,12.95
2019-01-09T04:22:42.659Z,21.43
2019-01-09T04:28:01.184Z,7.93
2019-01-09T04:33:19.646Z,19.70
2019-01-09T04:38:38.111Z,25.23
2019-01-09T04:43:56.692Z,16.80
2019-01-09T04:49:15.146Z,11.90
2019-01-09T04:54:33.793Z,19.47
2019-01-09T04:59:52.254Z,14.70
2019-01-09T05:05:10.815Z,16.95
2019-01-09T05:10:29.347Z,19.70
2019-01-09T05:15:48.151Z,10.07
2019-01-09T05:21:06.682Z,14.37
2019-01-09T05:26:25.148Z,7.33
2019-01-09T05:31:43.615Z,7.12
2019-01-09T05:37:09.411Z,5.67
2019-01-09T05:42:22.389Z,4.50
2019-01-09T05:47:40.910Z,1.20
2019-01-09T05:53:18.720Z,2.73
2019-01-09T05:58:37.246Z,5.67
2019-01-09T06:03:55.709Z,7.03
2019-01-09T06:20:15.123Z,29.72
2019-01-09T06:25:33.755Z,31.48
2019-01-09T06:30:52.265Z,23.57
2019-01-09T06:36:10.804Z,33.80
2019-01-09T06:41:29.692Z,35.07
2019-01-09T06:46:48.545Z,18.60
2019-01-09T06:52:07.010Z,31.30
2019-01-09T06:57:25.552Z,34.30
2019-01-09T07:02:44.084Z,33.25
2019-01-09T07:08:02.550Z,26.80
2019-01-09T07:13:21.004Z,30.00
2019-01-09T07:18:39.468Z,27.27
2019-01-09T07:23:58.397Z,30.43
2019-01-09T07:29:16.940Z,24.47
2019-01-09T07:34:35.480Z,30.33
2019-01-09T07:39:53.973Z,13.63
2019-01-09T07:45:12.543Z,24.37
2019-01-09T07:56:24.542Z,24.57
2019-01-09T08:01:43.158Z,28.63
2019-01-09T08:07:01.678Z,22.60
2019-01-09T08:12:20.219Z,27.63
2019-01-09T08:29:04.407Z,20.07
2019-01-09T08:34:22.985Z,26.13
2019-01-09T08:39:41.519Z,23.93
2019-01-09T08:45:00.339Z,36.00
2019-01-09T08:50:18.816Z,18.33
2019-01-09T08:55:37.270Z,23.60
2019-01-09T09:06:28.237Z,25.33
2019-01-09T09:11:46.702Z,26.35
2019-01-09T09:22:37.739Z,27.03
2019-01-09T09:33:26.710Z,21.57
2019-01-09T09:38:45.358Z,24.93
2019-01-09T09:44:03.967Z,38.17
2019-01-09T09:49:22.564Z,18.77
2019-01-09T09:54:41.171Z,44.73
2019-01-09T09:59:59.775Z,22.23
2019-01-09T10:10:49.318Z,23.37
2019-01-09T10:16:07.865Z,22.87
2019-01-09T10:21:26.524Z,16.20
2019-01-09T10:26:45.057Z,23.97
2019-01-09T10:32:03.657Z,14.77
2019-01-09T10:37:22.250Z,16.77
2019-01-09T10:42:40.862Z,18.00
2019-01-09T10:47:59.464Z,14.83
2019-01-09T10:53:18.040Z,11.23
2019-01-09T11:04:07.627Z,16.43
2019-01-09T11:09:26.186Z,20.87
2019-01-09T11:14:44.762Z,5.87
2019-01-09T11:25:54.535Z,14.33
2019-01-09T11:31:13.068Z,26.57
2019-01-09T11:36:31.611Z,10.93
2019-01-09T11:41:50.136Z,15.03
2019-01-09T11:47:08.729Z,11.70
2019-01-09T11:52:27.175Z,15.37
2019-01-09T11:57:45.638Z,7.42
2019-01-09T12:03:04.241Z,13.00
2019-01-09T12:08:22.780Z,10.70
2019-01-09T12:13:41.241Z,9.00
2019-01-09T12:18:59.710Z,10.50
2019-01-09T12:24:37.580Z,12.17
2019-01-09T12:29:56.113Z,15.20
2019-01-09T12:35:14.720Z,9.80
2019-01-09T12:40:33.252Z,9.43
2019-01-09T12:45:51.782Z,7.67
2019-01-09T12:51:10.319Z,15.37
2019-01-09T12:56:28.783Z,13.77
2019-01-09T13:07:17.976Z,12.57
2019-01-09T13:12:36.520Z,8.40
2019-01-09T13:17:55.060Z,15.43
2019-01-09T13:23:13.816Z,11.13
2019-01-09T13:28:32.396Z,4.67
2019-01-09T13:33:50.791Z,8.67
2019-01-09T13:39:49.395Z,11.10
2019-01-09T13:45:47.777Z,4.23
2019-01-09T13:51:06.735Z,6.40
2019-01-09T13:56:25.199Z,6.93
2019-01-09T14:01:43.726Z,11.50
2019-01-09T14:07:02.275Z,13.17
2019-01-09T14:12:20.740Z,6.70
2019-01-09T14:17:39.204Z,14.33
2019-01-09T14:22:57.736Z,9.57
2019-01-09T14:28:16.341Z,11.80
2019-01-09T14:33:34.969Z,12.43
2019-01-09T14:38:53.505Z,11.93
2019-01-09T14:44:12.085Z,11.00
2019-01-09T14:49:57.905Z,9.10
2019-01-09T14:55:56.282Z,14.68
2019-01-09T15:01:14.747Z,10.87
2019-01-09T15:06:33.360Z,15.60
2019-01-09T15:11:51.961Z,15.53
2019-01-09T15:17:10.597Z,9.10
2019-01-09T15:22:29.125Z,8.27
2019-01-09T15:27:47.751Z,9.83
2019-01-09T15:33:06.346Z,4.57
2019-01-09T15:38:24.867Z,6.47
2019-01-09T15:43:43.644Z,13.80
2019-01-09T15:49:02.184Z,11.57
2019-01-09T15:54:20.712Z,10.07
2019-01-09T15:59:39.179Z,13.70
2019-01-09T16:04:57.671Z,11.50
2019-01-09T16:10:35.513Z,10.75
2019-01-09T16:15:53.968Z,16.87
2019-01-09T16:26:43.016Z,14.47
2019-01-09T16:32:01.477Z,14.67
2019-01-09T16:37:20.021Z,14.37
2019-01-09T16:42:38.496Z,15.67
2019-01-09T16:53:29.608Z,14.27
2019-01-09T16:58:48.215Z,13.80
2019-01-09T17:04:06.822Z,8.03
2019-01-09T17:09:25.284Z,17.03
2019-01-09T17:14:43.744Z,14.20
2019-01-09T17:20:02.280Z,12.57
2019-01-09T17:25:22.608Z,18.30
2019-01-09T17:36:13.721Z,10.93
2019-01-09T17:41:51.623Z,18.13
2019-01-09T17:47:10.084Z,11.97
2019-01-09T17:52:28.630Z,12.33
2019-01-09T18:03:19.754Z,19.40
2019-01-09T18:25:53.789Z,10.55
2019-01-09T18:31:52.165Z,11.50
2019-01-09T18:37:50.806Z,8.30
2019-01-09T18:43:49.173Z,10.03
2019-01-09T18:49:47.548Z,8.30
2019-01-09T18:55:45.898Z,9.37
2019-01-09T19:01:25.146Z,12.67
2019-01-09T19:06:43.752Z,10.70
2019-01-09T19:12:02.375Z,8.87
2019-01-09T19:17:20.978Z,6.63
2019-01-09T19:22:39.596Z,17.13
2019-01-09T19:27:59.928Z,20.77
2019-01-09T19:33:18.550Z,11.23
2019-01-09T19:38:37.165Z,9.23
2019-01-09T19:43:55.762Z,5.23
2019-01-09T19:49:14.365Z,9.90
2019-01-09T19:54:33.312Z,5.53
2019-01-09T20:06:03.908Z,3.50
2019-01-09T20:11:26.536Z,8.87
2019-01-09T20:16:43.065Z,10.17
2019-01-09T20:22:01.696Z,11.67
2019-01-09T20:27:20.286Z,15.73
2019-01-09T20:33:31.542Z,11.00
2019-01-09T20:38:50.207Z,13.07
2019-01-09T20:44:08.788Z,9.47
2019-01-09T20:49:27.348Z,9.30
2019-01-09T20:54:46.086Z,9.97
2019-01-09T21:00:44.781Z,9.83
2019-01-09T21:06:03.344Z,10.60
2019-01-09T21:11:21.931Z,14.37
2019-01-09T21:16:40.542Z,9.43
2019-01-09T21:21:59.095Z,8.07
2019-01-09T21:27:17.621Z,4.95
2019-01-09T21:32:36.228Z,6.80
2019-01-09T21:37:54.758Z,9.70
2019-01-09T21:43:32.637Z,6.30
2019-01-09T21:48:51.104Z,4.37
2019-01-09T21:54:09.565Z,10.70
2019-01-09T21:59:28.025Z,8.30
2019-01-09T22:05:06.185Z,5.85
2019-01-09T22:11:04.558Z,24.12
2019-01-09T22:16:23.028Z,11.50
2019-01-09T22:27:14.077Z,12.90
2019-01-09T22:32:32.695Z,14.70
2019-01-09T22:37:51.235Z,12.93
2019-01-09T22:43:09.856Z,10.73
2019-01-09T22:48:28.316Z,13.17
2019-01-09T22:53:46.845Z,9.33
2019-01-09T22:59:05.465Z,8.37
2019-01-09T23:04:24.136Z,8.77
2019-01-09T23:10:02.084Z,15.13
2019-01-09T23:15:20.615Z,13.90
2019-01-09T23:20:39.232Z,15.10
2019-01-09T23:25:58.054Z,7.03
2019-01-09T23:31:16.654Z,6.57
2019-01-09T23:36:35.353Z,5.20
2019-01-09T23:41:53.944Z,9.57
2019-01-09T23:47:12.480Z,12.50
2019-01-09T23:52:31.020Z,13.73
